createdAt,value
2023-05-19T00:01:00.327Z,11.14
2023-05-19T00:03:27.128Z,10.92
2023-05-19T00:05:54.358Z,11.15
2023-05-19T00:08:23.770Z,11.14
2023-05-19T00:10:50.649Z,10.94
2023-05-19T00:13:17.402Z,10.98
2023-05-19T00:15:44.092Z,11.00
2023-05-19T00:18:14.107Z,10.97
2023-05-19T00:20:41.357Z,10.94
2023-05-19T00:23:08.342Z,10.79
2023-05-19T00:25:34.897Z,10.89
2023-05-19T00:28:02.469Z,10.89
2023-05-19T00:30:32.494Z,10.89
2023-05-19T00:32:59.145Z,10.85
2023-05-19T00:35:25.686Z,10.58
2023-05-19T00:37:52.156Z,10.87
2023-05-19T00:40:18.899Z,10.67
2023-05-19T00:42:45.606Z,10.80
2023-05-19T00:45:12.089Z,10.81
2023-05-19T00:47:39.334Z,10.62
2023-05-19T00:50:06.124Z,10.76
2023-05-19T00:52:32.640Z,10.63
2023-05-19T00:54:59.530Z,10.58
2023-05-19T00:57:27.073Z,10.69
2023-05-19T00:59:53.897Z,10.66
2023-05-19T01:02:21.511Z,10.36
2023-05-19T01:04:48.152Z,10.54
2023-05-19T01:07:15.304Z,10.51
2023-05-19T01:09:41.937Z,10.43
2023-05-19T01:12:08.895Z,10.33
2023-05-19T01:14:35.448Z,10.55
2023-05-19T01:17:28.596Z,10.20
2023-05-19T01:20:11.059Z,10.21
2023-05-19T01:23:19.729Z,10.44
2023-05-19T01:25:46.123Z,10.43
2023-05-19T01:28:56.930Z,10.42
2023-05-19T01:31:25.435Z,10.30
2023-05-19T01:33:53.896Z,9.62
2023-05-19T01:36:22.550Z,10.34
2023-05-19T01:38:55.921Z,9.99
2023-05-19T01:41:23.021Z,10.38
2023-05-19T01:43:50.454Z,10.37
2023-05-19T01:46:17.639Z,10.03
2023-05-19T01:48:45.059Z,10.36
2023-05-19T01:51:11.714Z,10.06
2023-05-19T01:53:38.304Z,9.59
2023-05-19T01:56:06.529Z,10.32
2023-05-19T01:58:46.970Z,9.89
2023-05-19T02:01:44.191Z,10.29
2023-05-19T02:04:35.769Z,10.28
2023-05-19T02:07:37.388Z,10.30
2023-05-19T02:10:11.598Z,10.27
2023-05-19T02:12:40.490Z,9.95
2023-05-19T02:15:26.025Z,9.99
2023-05-19T02:17:54.429Z,10.13
2023-05-19T02:20:22.241Z,10.10
2023-05-19T02:22:49.153Z,10.21
2023-05-19T02:25:15.651Z,9.98
2023-05-19T02:27:42.085Z,10.18
2023-05-19T02:30:09.526Z,10.21
2023-05-19T02:32:36.547Z,10.17
2023-05-19T02:35:03.993Z,9.87
2023-05-19T02:37:31.160Z,10.10
2023-05-19T02:39:57.882Z,10.08
2023-05-19T02:42:24.309Z,10.06
2023-05-19T02:44:50.800Z,9.96
2023-05-19T02:47:17.219Z,10.06
2023-05-19T02:49:44.234Z,9.94
2023-05-19T02:52:12.078Z,9.98
2023-05-19T02:54:38.591Z,10.02
2023-05-19T02:57:05.388Z,9.89
2023-05-19T02:59:32.202Z,9.98
2023-05-19T03:02:03.051Z,9.96
2023-05-19T03:04:29.972Z,9.94
2023-05-19T03:06:57.671Z,9.92
2023-05-19T03:09:24.155Z,9.54
2023-05-19T03:11:50.742Z,9.74
2023-05-19T03:14:18.558Z,9.70
2023-05-19T03:16:45.208Z,9.54
2023-05-19T03:19:12.074Z,9.66
2023-05-19T03:21:38.493Z,9.57
2023-05-19T03:24:05.246Z,9.59
2023-05-19T03:26:31.692Z,9.46
2023-05-19T03:28:58.176Z,9.54
2023-05-19T03:31:24.611Z,9.56
2023-05-19T03:33:51.035Z,9.69
2023-05-19T03:36:17.614Z,9.56
2023-05-19T03:38:44.048Z,9.60
2023-05-19T03:41:10.520Z,9.72
2023-05-19T03:43:37.023Z,9.46
2023-05-19T03:46:03.560Z,9.77
2023-05-19T03:48:30.138Z,9.75
2023-05-19T03:50:56.574Z,9.44
2023-05-19T03:53:23.010Z,9.70
2023-05-19T03:55:50.621Z,9.65
2023-05-19T03:58:17.101Z,9.58
2023-05-19T04:00:43.552Z,9.54
2023-05-19T04:03:10.060Z,9.61
2023-05-19T04:05:36.666Z,9.89
2023-05-19T04:08:03.126Z,10.20
2023-05-19T04:10:29.709Z,10.39
2023-05-19T04:12:56.908Z,10.50
2023-05-19T04:15:23.443Z,10.95
2023-05-19T04:17:49.946Z,11.01
2023-05-19T04:20:16.489Z,11.05
2023-05-19T04:22:42.950Z,11.12
2023-05-19T04:25:09.644Z,11.15
2023-05-19T04:27:42.462Z,11.22
2023-05-19T04:30:09.386Z,11.10
2023-05-19T04:32:37.812Z,11.25
2023-05-19T04:35:04.738Z,10.79
2023-05-19T04:37:31.538Z,11.30
2023-05-19T04:39:58.025Z,11.12
2023-05-19T04:42:26.154Z,11.13
2023-05-19T04:44:52.675Z,10.92
2023-05-19T04:47:21.526Z,10.75
2023-05-19T04:49:48.169Z,10.59
2023-05-19T04:52:14.639Z,10.56
2023-05-19T04:54:41.910Z,10.33
2023-05-19T04:57:08.515Z,10.30
2023-05-19T04:59:35.014Z,10.30
2023-05-19T05:02:01.522Z,10.25
2023-05-19T05:04:28.401Z,10.27
2023-05-19T05:06:54.877Z,10.11
2023-05-19T05:09:21.503Z,10.24
2023-05-19T05:11:48.246Z,9.99
2023-05-19T05:14:15.034Z,10.11
2023-05-19T05:16:42.298Z,10.22
2023-05-19T05:19:09.183Z,10.23
2023-05-19T05:21:35.978Z,10.20
2023-05-19T05:24:02.799Z,10.02
2023-05-19T05:26:31.618Z,10.26
2023-05-19T05:28:58.071Z,10.30
2023-05-19T05:31:24.629Z,10.54
2023-05-19T05:33:51.133Z,11.02
2023-05-19T05:36:17.721Z,11.65
2023-05-19T05:38:44.243Z,11.88
2023-05-19T05:41:10.765Z,12.19
2023-05-19T05:43:37.285Z,12.28
2023-05-19T05:46:03.843Z,12.19
2023-05-19T05:48:30.617Z,12.44
2023-05-19T05:50:57.796Z,12.30
2023-05-19T05:53:26.215Z,12.69
2023-05-19T05:55:53.600Z,12.75
2023-05-19T05:58:21.224Z,12.82
2023-05-19T06:00:49.409Z,12.76
2023-05-19T06:03:16.957Z,12.90
2023-05-19T06:05:43.597Z,13.00
2023-05-19T06:08:10.117Z,13.19
2023-05-19T06:10:38.926Z,13.19
2023-05-19T06:13:05.571Z,13.07
2023-05-19T06:15:32.073Z,13.08
2023-05-19T06:17:59.216Z,13.18
2023-05-19T06:20:26.295Z,13.29
2023-05-19T06:22:52.801Z,13.37
2023-05-19T06:25:20.516Z,13.39
2023-05-19T06:27:47.012Z,13.47
2023-05-19T06:30:13.788Z,13.36
2023-05-19T06:32:40.488Z,13.45
2023-05-19T06:35:07.361Z,13.51
2023-05-19T06:37:33.852Z,13.42
2023-05-19T06:40:00.455Z,13.58
2023-05-19T06:42:26.893Z,13.63
2023-05-19T06:44:53.363Z,13.64
2023-05-19T06:47:19.970Z,13.82
2023-05-19T06:49:46.615Z,13.69
2023-05-19T06:52:13.054Z,13.79
2023-05-19T06:54:39.546Z,13.96
2023-05-19T06:57:06.042Z,13.96
2023-05-19T06:59:32.520Z,14.10
2023-05-19T07:01:59.317Z,14.03
2023-05-19T07:04:25.825Z,13.92
2023-05-19T07:06:52.333Z,14.21
2023-05-19T07:09:18.867Z,14.29
2023-05-19T07:11:45.809Z,14.20
2023-05-19T07:14:12.233Z,14.22
2023-05-19T07:16:38.776Z,14.07
2023-05-19T07:19:05.460Z,14.02
2023-05-19T07:21:31.906Z,13.84
2023-05-19T07:23:58.344Z,13.48
2023-05-19T07:26:24.796Z,13.64
2023-05-19T07:28:51.923Z,13.72
2023-05-19T07:31:19.445Z,13.51
2023-05-19T07:33:45.892Z,13.57
2023-05-19T07:36:12.412Z,13.66
2023-05-19T07:38:38.954Z,13.47
2023-05-19T07:41:05.791Z,13.49
2023-05-19T07:43:32.278Z,13.73
2023-05-19T07:45:58.856Z,13.73
2023-05-19T07:48:25.929Z,13.54
2023-05-19T07:50:53.075Z,13.87
2023-05-19T07:53:20.276Z,13.86
2023-05-19T07:55:46.867Z,13.81
2023-05-19T07:58:13.404Z,13.96
2023-05-19T08:00:42.985Z,14.08
2023-05-19T08:03:09.981Z,14.13
2023-05-19T08:05:36.722Z,14.20
2023-05-19T08:08:03.755Z,14.26
2023-05-19T08:10:30.476Z,14.30
2023-05-19T08:12:59.777Z,14.16
2023-05-19T08:15:26.424Z,14.43
2023-05-19T08:17:53.269Z,14.29
2023-05-19T08:20:20.341Z,14.49
2023-05-19T08:22:46.922Z,14.63
2023-05-19T08:25:13.848Z,14.49
2023-05-19T08:27:40.461Z,14.75
2023-05-19T08:30:07.507Z,14.82
2023-05-19T08:32:33.980Z,14.75
2023-05-19T08:35:00.499Z,14.81
2023-05-19T08:37:26.974Z,14.93
2023-05-19T08:39:53.403Z,14.92
2023-05-19T08:42:19.813Z,14.68
2023-05-19T08:44:46.599Z,14.71
2023-05-19T08:47:14.077Z,14.61
2023-05-19T08:49:45.493Z,14.66
2023-05-19T08:52:41.948Z,15.07
2023-05-19T08:55:21.770Z,15.22
2023-05-19T08:57:49.555Z,15.34
2023-05-19T09:00:16.920Z,15.34
2023-05-19T09:02:54.977Z,15.43
2023-05-19T09:05:27.855Z,15.72
2023-05-19T09:07:55.042Z,15.84
2023-05-19T09:10:21.576Z,15.67
2023-05-19T09:12:49.620Z,16.04
2023-05-19T09:15:18.753Z,16.14
2023-05-19T09:17:47.968Z,16.22
2023-05-19T09:20:17.316Z,16.21
2023-05-19T09:22:47.232Z,15.97
2023-05-19T09:25:22.921Z,16.14
2023-05-19T09:27:50.521Z,16.19
2023-05-19T09:30:17.773Z,16.06
2023-05-19T09:32:45.530Z,15.73
2023-05-19T09:35:13.442Z,16.33
2023-05-19T09:37:41.511Z,16.49
2023-05-19T09:40:13.503Z,16.47
2023-05-19T09:42:41.514Z,16.82
2023-05-19T09:45:12.018Z,16.89
2023-05-19T09:47:42.184Z,16.65
2023-05-19T09:50:11.245Z,16.70
2023-05-19T09:52:43.647Z,16.81
2023-05-19T09:55:12.735Z,16.88
2023-05-19T09:57:40.736Z,16.65
2023-05-19T10:00:15.590Z,16.99
2023-05-19T10:02:47.131Z,17.08
2023-05-19T10:05:20.829Z,16.87
2023-05-19T10:07:51.604Z,17.24
2023-05-19T10:10:20.785Z,17.09
2023-05-19T10:12:48.465Z,17.35
2023-05-19T10:15:21.422Z,17.57
2023-05-19T10:17:50.168Z,17.68
2023-05-19T10:20:17.790Z,17.78
2023-05-19T10:22:46.199Z,17.81
2023-05-19T10:25:15.216Z,17.79
2023-05-19T10:28:03.622Z,18.02
2023-05-19T10:30:34.436Z,18.04
2023-05-19T10:33:03.714Z,18.20
2023-05-19T10:36:02.540Z,18.21
2023-05-19T10:38:48.595Z,18.34
2023-05-19T10:41:49.128Z,18.35
2023-05-19T10:44:46.471Z,18.43
2023-05-19T10:47:13.221Z,18.12
2023-05-19T10:49:39.954Z,18.31
2023-05-19T10:52:21.509Z,17.94
2023-05-19T10:54:47.999Z,18.12
2023-05-19T10:57:16.469Z,18.50
2023-05-19T10:59:46.413Z,18.55
2023-05-19T11:02:39.988Z,18.54
2023-05-19T11:05:11.408Z,18.54
2023-05-19T11:07:41.396Z,18.45
2023-05-19T11:10:08.312Z,18.76
2023-05-19T11:12:45.562Z,18.82
2023-05-19T11:15:13.872Z,18.79
2023-05-19T11:17:42.420Z,18.84
2023-05-19T11:20:19.892Z,18.97
2023-05-19T11:23:01.351Z,19.03
2023-05-19T11:25:44.259Z,19.13
2023-05-19T11:28:12.578Z,19.00
2023-05-19T11:30:42.118Z,19.04
2023-05-19T11:33:08.949Z,18.84
2023-05-19T11:35:36.511Z,19.07
2023-05-19T11:38:03.653Z,19.33
2023-05-19T11:40:30.727Z,19.41
2023-05-19T11:42:57.208Z,19.47
2023-05-19T11:45:28.721Z,19.28
2023-05-19T11:48:02.367Z,19.66
2023-05-19T11:50:31.442Z,19.60
2023-05-19T11:53:00.443Z,19.26
2023-05-19T11:55:27.511Z,19.62
2023-05-19T11:58:04.074Z,19.90
2023-05-19T12:00:40.871Z,19.88
2023-05-19T12:03:09.336Z,20.36
2023-05-19T12:05:45.291Z,20.33
2023-05-19T12:08:12.692Z,20.70
2023-05-19T12:10:40.707Z,20.79
2023-05-19T12:13:10.809Z,20.70
2023-05-19T12:15:37.999Z,20.76
2023-05-19T12:18:04.637Z,20.83
2023-05-19T12:20:36.121Z,21.36
2023-05-19T12:23:03.652Z,21.86
2023-05-19T12:25:31.868Z,22.02
2023-05-19T12:28:00.374Z,21.47
2023-05-19T12:30:28.953Z,21.91
2023-05-19T12:32:59.113Z,22.51
2023-05-19T12:35:37.506Z,22.89
2023-05-19T12:38:04.939Z,23.26
2023-05-19T12:40:31.951Z,23.36
2023-05-19T12:42:59.199Z,22.97
2023-05-19T12:45:27.934Z,22.91
2023-05-19T12:47:54.784Z,23.20
2023-05-19T12:50:21.333Z,23.48
2023-05-19T12:52:51.177Z,23.46
2023-05-19T12:55:20.490Z,23.09
2023-05-19T12:57:57.250Z,23.58
2023-05-19T13:00:32.537Z,23.81
2023-05-19T13:03:05.668Z,23.37
2023-05-19T13:05:34.396Z,23.36
2023-05-19T13:08:06.789Z,23.24
2023-05-19T13:10:34.908Z,23.18
2023-05-19T13:13:01.932Z,23.44
2023-05-19T13:15:34.513Z,23.34
2023-05-19T13:18:03.279Z,23.17
2023-05-19T13:20:30.473Z,23.15
2023-05-19T13:22:57.414Z,23.08
2023-05-19T13:25:24.085Z,23.47
2023-05-19T13:27:51.040Z,23.27
2023-05-19T13:30:18.741Z,23.31
2023-05-19T13:32:46.011Z,23.59
2023-05-19T13:35:13.983Z,23.59
2023-05-19T13:37:42.180Z,23.57
2023-05-19T13:40:09.730Z,24.12
2023-05-19T13:42:36.758Z,24.07
2023-05-19T13:45:03.804Z,23.80
2023-05-19T13:47:30.505Z,23.79
2023-05-19T13:49:57.288Z,23.71
2023-05-19T13:52:24.079Z,23.59
2023-05-19T13:54:50.551Z,23.97
2023-05-19T13:57:17.041Z,24.33
2023-05-19T14:00:00.244Z,24.46
2023-05-19T14:02:29.830Z,24.64
2023-05-19T14:07:23.610Z,23.77
2023-05-19T14:09:51.158Z,23.64
2023-05-19T14:12:17.884Z,23.42
2023-05-19T14:14:44.789Z,23.47
2023-05-19T14:17:11.882Z,22.94
2023-05-19T14:19:38.346Z,22.90
2023-05-19T14:22:05.085Z,22.99
2023-05-19T14:24:31.622Z,22.79
2023-05-19T14:26:58.049Z,22.60
2023-05-19T14:29:24.495Z,22.61
2023-05-19T14:31:50.963Z,22.80
2023-05-19T14:34:20.917Z,22.68
2023-05-19T14:36:48.595Z,23.06
2023-05-19T14:39:15.171Z,22.81
2023-05-19T14:41:41.622Z,23.04
2023-05-19T14:44:08.085Z,23.38
2023-05-19T14:46:34.573Z,23.33
2023-05-19T14:49:01.212Z,23.24
2023-05-19T14:51:27.631Z,23.10
2023-05-19T14:53:54.100Z,22.82
2023-05-19T14:56:21.935Z,22.67
2023-05-19T14:58:48.401Z,22.28
2023-05-19T15:01:14.866Z,21.86
2023-05-19T15:03:41.327Z,21.71
2023-05-19T15:06:11.176Z,21.49
2023-05-19T15:08:38.229Z,21.02
2023-05-19T15:11:04.803Z,20.89
2023-05-19T15:13:31.365Z,20.82
2023-05-19T15:16:12.327Z,20.72
2023-05-19T15:18:43.292Z,20.63
2023-05-19T15:21:09.864Z,20.40
2023-05-19T15:23:36.319Z,20.51
2023-05-19T15:26:02.843Z,20.44
2023-05-19T15:28:29.458Z,20.44
2023-05-19T15:30:55.918Z,20.47
2023-05-19T15:33:22.394Z,20.35
2023-05-19T15:35:51.677Z,20.39
2023-05-19T15:38:19.291Z,20.37
2023-05-19T15:40:46.820Z,20.50
2023-05-19T15:43:13.933Z,20.33
2023-05-19T15:45:40.858Z,20.08
2023-05-19T15:48:07.449Z,20.30
2023-05-19T15:50:34.342Z,20.68
2023-05-19T15:53:01.067Z,20.87
2023-05-19T15:55:27.516Z,21.37
2023-05-19T15:57:53.969Z,21.52
2023-05-19T16:00:20.530Z,21.40
2023-05-19T16:02:47.055Z,21.59
2023-05-19T16:05:14.266Z,21.62
2023-05-19T16:07:42.073Z,21.62
2023-05-19T16:10:09.134Z,21.51
2023-05-19T16:12:36.634Z,21.71
2023-05-19T16:15:03.487Z,21.76
2023-05-19T16:17:30.098Z,21.71
2023-05-19T16:19:56.607Z,21.79
2023-05-19T16:22:24.790Z,21.81
2023-05-19T16:24:52.152Z,21.90
2023-05-19T16:27:18.828Z,21.77
2023-05-19T16:29:45.358Z,22.09
2023-05-19T16:32:12.377Z,22.09
2023-05-19T16:34:38.989Z,22.26
2023-05-19T16:37:05.506Z,22.14
2023-05-19T16:39:32.587Z,21.83
2023-05-19T16:41:59.009Z,21.99
2023-05-19T16:44:25.698Z,21.60
2023-05-19T16:46:52.193Z,21.43
2023-05-19T16:49:18.640Z,21.53
2023-05-19T16:51:46.199Z,21.28
2023-05-19T16:54:13.928Z,21.64
2023-05-19T16:56:40.441Z,21.33
2023-05-19T16:59:09.178Z,20.90
2023-05-19T17:01:35.722Z,21.16
2023-05-19T17:04:02.209Z,21.04
2023-05-19T17:06:28.808Z,20.93
2023-05-19T17:08:55.282Z,20.74
2023-05-19T17:11:21.824Z,20.74
2023-05-19T17:13:48.301Z,20.58
2023-05-19T17:16:15.093Z,20.32
2023-05-19T17:18:41.794Z,20.21
2023-05-19T17:21:08.242Z,20.08
2023-05-19T17:23:34.823Z,19.84
2023-05-19T17:26:01.887Z,19.70
2023-05-19T17:28:28.531Z,19.73
2023-05-19T17:30:54.970Z,19.56
2023-05-19T17:33:21.470Z,19.44
2023-05-19T17:35:47.967Z,19.29
2023-05-19T17:38:14.411Z,19.39
2023-05-19T17:40:42.049Z,19.06
2023-05-19T17:43:08.797Z,18.88
2023-05-19T17:45:35.584Z,18.96
2023-05-19T17:48:02.261Z,18.86
2023-05-19T17:50:28.761Z,18.94
2023-05-19T17:52:56.161Z,18.97
2023-05-19T17:55:27.895Z,18.73
2023-05-19T17:57:54.684Z,18.84
2023-05-19T18:00:21.632Z,18.87
2023-05-19T18:02:48.569Z,18.84
2023-05-19T18:05:15.747Z,18.81
2023-05-19T18:07:42.462Z,18.47
2023-05-19T18:10:09.714Z,18.46
2023-05-19T18:12:36.245Z,18.66
2023-05-19T18:15:03.311Z,18.60
2023-05-19T18:17:29.761Z,18.57
2023-05-19T18:19:56.217Z,18.41
2023-05-19T18:22:22.702Z,18.28
2023-05-19T18:24:49.180Z,18.56
2023-05-19T18:27:15.609Z,18.56
2023-05-19T18:29:42.286Z,18.46
2023-05-19T18:32:09.160Z,18.33
2023-05-19T18:34:35.847Z,18.40
2023-05-19T18:37:02.377Z,18.45
2023-05-19T18:39:29.468Z,18.26
2023-05-19T18:41:56.043Z,18.43
2023-05-19T18:44:22.579Z,18.28
2023-05-19T18:46:49.149Z,18.39
2023-05-19T18:49:15.748Z,18.39
2023-05-19T18:51:42.491Z,18.30
2023-05-19T18:54:09.086Z,18.24
2023-05-19T18:56:35.688Z,18.27
2023-05-19T18:59:02.170Z,17.99
2023-05-19T19:01:28.967Z,18.08
2023-05-19T19:03:55.462Z,18.06
2023-05-19T19:06:23.217Z,18.18
2023-05-19T19:08:49.849Z,18.01
2023-05-19T19:11:16.533Z,17.96
2023-05-19T19:13:43.673Z,18.02
2023-05-19T19:16:12.036Z,17.99
2023-05-19T19:18:38.655Z,17.97
2023-05-19T19:21:07.898Z,18.01
2023-05-19T19:23:34.493Z,17.81
2023-05-19T19:26:01.920Z,17.58
2023-05-19T19:28:28.378Z,17.82
2023-05-19T19:30:54.889Z,17.76
2023-05-19T19:33:21.420Z,17.43
2023-05-19T19:35:47.871Z,17.59
2023-05-19T19:38:14.410Z,17.48
2023-05-19T19:40:41.275Z,17.47
2023-05-19T19:43:07.763Z,17.17
2023-05-19T19:45:34.896Z,16.88
2023-05-19T19:48:01.787Z,17.10
2023-05-19T19:50:28.354Z,16.87
2023-05-19T19:52:54.784Z,17.11
2023-05-19T19:55:21.620Z,17.07
2023-05-19T19:57:49.337Z,17.12
2023-05-19T20:00:16.597Z,16.79
2023-05-19T20:02:55.840Z,16.87
2023-05-19T20:05:29.529Z,16.86
2023-05-19T20:07:55.961Z,16.94
2023-05-19T20:10:22.455Z,16.73
2023-05-19T20:12:50.524Z,16.63
2023-05-19T20:15:17.159Z,16.76
2023-05-19T20:17:43.660Z,16.40
2023-05-19T20:20:12.137Z,16.43
2023-05-19T20:22:39.113Z,16.33
2023-05-19T20:25:06.080Z,16.29
2023-05-19T20:27:32.536Z,16.57
2023-05-19T20:29:59.023Z,16.50
2023-05-19T20:32:25.632Z,16.49
2023-05-19T20:34:52.184Z,16.45
2023-05-19T20:37:18.627Z,16.27
2023-05-19T20:39:45.050Z,16.30
2023-05-19T20:42:11.579Z,16.27
2023-05-19T20:44:38.103Z,16.11
2023-05-19T20:47:04.839Z,16.20
2023-05-19T20:49:31.306Z,16.09
2023-05-19T20:51:57.811Z,16.09
2023-05-19T20:54:24.319Z,16.17
2023-05-19T20:56:51.894Z,15.96
2023-05-19T20:59:21.418Z,15.90
2023-05-19T21:01:48.066Z,15.88
2023-05-19T21:04:14.619Z,16.04
2023-05-19T21:06:41.282Z,15.85
2023-05-19T21:09:07.897Z,15.98
2023-05-19T21:11:34.558Z,15.78
2023-05-19T21:14:04.092Z,15.86
2023-05-19T21:16:31.323Z,15.83
2023-05-19T21:18:58.019Z,15.71
2023-05-19T21:21:24.604Z,15.79
2023-05-19T21:23:51.052Z,15.81
2023-05-19T21:26:17.837Z,15.69
2023-05-19T21:28:44.299Z,15.71
2023-05-19T21:31:10.963Z,15.48
2023-05-19T21:33:37.478Z,15.66
2023-05-19T21:36:04.138Z,15.67
2023-05-19T21:38:30.813Z,15.68
2023-05-19T21:40:57.275Z,15.48
2023-05-19T21:43:23.773Z,15.63
2023-05-19T21:45:50.219Z,15.52
2023-05-19T21:48:16.795Z,15.37
2023-05-19T21:50:43.392Z,15.53
2023-05-19T21:53:09.992Z,15.47
2023-05-19T21:55:36.501Z,15.46
2023-05-19T21:58:03.083Z,15.38
2023-05-19T22:00:29.589Z,15.25
2023-05-19T22:02:56.643Z,15.32
2023-05-19T22:05:23.137Z,15.17
2023-05-19T22:07:49.611Z,15.43
2023-05-19T22:10:16.095Z,15.23
2023-05-19T22:12:42.530Z,15.39
2023-05-19T22:15:09.703Z,15.36
2023-05-19T22:17:36.251Z,15.09
2023-05-19T22:20:02.749Z,15.11
2023-05-19T22:22:29.179Z,15.21
2023-05-19T22:24:55.631Z,15.22
2023-05-19T22:27:22.070Z,15.08
2023-05-19T22:29:48.505Z,15.10
2023-05-19T22:32:17.935Z,14.81
2023-05-19T22:34:44.740Z,15.01
2023-05-19T22:37:11.521Z,14.87
2023-05-19T22:39:38.978Z,14.89
2023-05-19T22:42:05.981Z,14.76
2023-05-19T22:44:32.488Z,14.82
2023-05-19T22:46:58.951Z,14.03
2023-05-19T22:49:26.169Z,14.87
2023-05-19T22:51:52.770Z,14.59
2023-05-19T22:54:19.273Z,14.76
2023-05-19T22:56:48.429Z,14.76
2023-05-19T22:59:17.614Z,14.63
2023-05-19T23:01:46.357Z,14.50
2023-05-19T23:04:13.480Z,14.45
2023-05-19T23:06:39.973Z,14.35
2023-05-19T23:09:06.620Z,14.42
2023-05-19T23:11:33.140Z,14.47
2023-05-19T23:13:59.674Z,14.44
2023-05-19T23:16:26.210Z,14.29
2023-05-19T23:18:52.790Z,14.29
2023-05-19T23:21:19.339Z,14.01
2023-05-19T23:23:45.871Z,14.31
2023-05-19T23:26:13.447Z,14.13
2023-05-19T23:28:42.043Z,13.74
2023-05-19T23:31:09.159Z,14.10
2023-05-19T23:33:35.835Z,14.19
2023-05-19T23:36:09.879Z,14.01
2023-05-19T23:38:37.297Z,14.16
2023-05-19T23:41:04.851Z,13.95
2023-05-19T23:43:34.802Z,13.80
2023-05-19T23:46:01.646Z,13.78
2023-05-19T23:48:29.267Z,13.93
2023-05-19T23:50:56.831Z,13.90
2023-05-19T23:53:23.528Z,13.82
2023-05-19T23:55:51.272Z,13.92
2023-05-19T23:58:18.190Z,13.75
